sensor_id;sensor_type;location;lat;lon;timestamp;temperature;humidity
22416;DHT22;12204;50.600;4.608;2023-05-02T00:04:55;22.00;73.90
22416;DHT22;12204;50.600;4.608;2023-05-02T00:09:58;22.00;74.10
22416;DHT22;12204;50.600;4.608;2023-05-02T00:15:06;22.00;74.10
22416;DHT22;12204;50.600;4.608;2023-05-02T00:20:11;22.00;73.90
22416;DHT22;12204;50.600;4.608;2023-05-02T00:25:15;22.00;73.90
22416;DHT22;12204;50.600;4.608;2023-05-02T00:30:19;22.00;74.50
22416;DHT22;12204;50.600;4.608;2023-05-02T00:35:23;22.00;74.60
22416;DHT22;12204;50.600;4.608;2023-05-02T00:40:26;22.00;74.80
22416;DHT22;12204;50.600;4.608;2023-05-02T00:45:31;22.00;74.60
22416;DHT22;12204;50.600;4.608;2023-05-02T00:50:36;22.00;74.80
22416;DHT22;12204;50.600;4.608;2023-05-02T00:55:41;22.00;74.80
22416;DHT22;12204;50.600;4.608;2023-05-02T01:00:58;22.00;75.00
22416;DHT22;12204;50.600;4.608;2023-05-02T01:06:25;22.00;74.90
22416;DHT22;12204;50.600;4.608;2023-05-02T01:11:44;22.00;75.00
22416;DHT22;12204;50.600;4.608;2023-05-02T01:16:55;22.00;75.00
22416;DHT22;12204;50.600;4.608;2023-05-02T01:22:01;22.00;75.00
22416;DHT22;12204;50.600;4.608;2023-05-02T01:27:14;22.00;74.90
22416;DHT22;12204;50.600;4.608;2023-05-02T01:32:27;22.00;74.90
22416;DHT22;12204;50.600;4.608;2023-05-02T01:37:33;22.00;75.10
22416;DHT22;12204;50.600;4.608;2023-05-02T01:42:38;22.00;75.20
22416;DHT22;12204;50.600;4.608;2023-05-02T01:47:45;22.00;75.10
22416;DHT22;12204;50.600;4.608;2023-05-02T01:52:51;22.00;75.50
22416;DHT22;12204;50.600;4.608;2023-05-02T01:57:55;22.00;75.20
22416;DHT22;12204;50.600;4.608;2023-05-02T02:03:02;22.00;75.50
22416;DHT22;12204;50.600;4.608;2023-05-02T02:08:08;22.00;75.10
22416;DHT22;12204;50.600;4.608;2023-05-02T02:13:16;22.00;75.60
22416;DHT22;12204;50.600;4.608;2023-05-02T02:18:31;22.00;75.40
22416;DHT22;12204;50.600;4.608;2023-05-02T02:23:39;22.00;75.70
22416;DHT22;12204;50.600;4.608;2023-05-02T02:28:45;22.00;76.00
22416;DHT22;12204;50.600;4.608;2023-05-02T02:33:50;22.00;75.90
22416;DHT22;12204;50.600;4.608;2023-05-02T02:38:59;22.00;76.30
22416;DHT22;12204;50.600;4.608;2023-05-02T02:44:21;22.00;76.10
22416;DHT22;12204;50.600;4.608;2023-05-02T02:49:46;22.00;75.80
22416;DHT22;12204;50.600;4.608;2023-05-02T02:54:57;22.00;76.30
22416;DHT22;12204;50.600;4.608;2023-05-02T03:00:10;22.00;76.30
22416;DHT22;12204;50.600;4.608;2023-05-02T03:05:20;21.90;76.20
22416;DHT22;12204;50.600;4.608;2023-05-02T03:10:24;22.00;76.20
22416;DHT22;12204;50.600;4.608;2023-05-02T03:16:11;21.90;75.80
22416;DHT22;12204;50.600;4.608;2023-05-02T03:21:33;21.90;76.50
22416;DHT22;12204;50.600;4.608;2023-05-02T03:26:44;21.90;76.70
22416;DHT22;12204;50.600;4.608;2023-05-02T03:31:50;21.90;76.70
22416;DHT22;12204;50.600;4.608;2023-05-02T03:36:56;21.90;76.70
22416;DHT22;12204;50.600;4.608;2023-05-02T03:42:00;21.90;76.70
22416;DHT22;12204;50.600;4.608;2023-05-02T03:47:04;21.90;76.60
22416;DHT22;12204;50.600;4.608;2023-05-02T03:52:14;21.90;76.70
22416;DHT22;12204;50.600;4.608;2023-05-02T03:57:19;21.90;76.70
22416;DHT22;12204;50.600;4.608;2023-05-02T04:02:23;21.90;76.60
22416;DHT22;12204;50.600;4.608;2023-05-02T04:07:29;21.90;76.60
22416;DHT22;12204;50.600;4.608;2023-05-02T04:12:38;21.90;76.50
22416;DHT22;12204;50.600;4.608;2023-05-02T04:17:42;21.90;76.60
22416;DHT22;12204;50.600;4.608;2023-05-02T04:22:49;21.90;76.80
22416;DHT22;12204;50.600;4.608;2023-05-02T04:27:52;21.90;77.00
22416;DHT22;12204;50.600;4.608;2023-05-02T04:32:57;21.90;77.00
22416;DHT22;12204;50.600;4.608;2023-05-02T04:38:07;21.90;76.90
22416;DHT22;12204;50.600;4.608;2023-05-02T04:43:11;21.90;77.00
22416;DHT22;12204;50.600;4.608;2023-05-02T04:48:22;21.90;76.80
22416;DHT22;12204;50.600;4.608;2023-05-02T04:53:28;21.90;77.00
22416;DHT22;12204;50.600;4.608;2023-05-02T04:58:31;21.90;77.00
22416;DHT22;12204;50.600;4.608;2023-05-02T05:03:39;21.90;77.00
22416;DHT22;12204;50.600;4.608;2023-05-02T05:08:45;21.90;77.10
22416;DHT22;12204;50.600;4.608;2023-05-02T05:13:50;21.90;77.00
22416;DHT22;12204;50.600;4.608;2023-05-02T05:18:54;21.90;76.90
22416;DHT22;12204;50.600;4.608;2023-05-02T05:23:59;21.90;76.90
22416;DHT22;12204;50.600;4.608;2023-05-02T05:29:03;21.90;76.80
22416;DHT22;12204;50.600;4.608;2023-05-02T05:34:12;21.90;76.80
22416;DHT22;12204;50.600;4.608;2023-05-02T05:39:20;21.90;76.60
22416;DHT22;12204;50.600;4.608;2023-05-02T05:44:27;21.90;76.70
22416;DHT22;12204;50.600;4.608;2023-05-02T05:49:30;21.90;76.50
22416;DHT22;12204;50.600;4.608;2023-05-02T05:54:42;21.90;76.50
22416;DHT22;12204;50.600;4.608;2023-05-02T05:59:46;21.90;76.60
22416;DHT22;12204;50.600;4.608;2023-05-02T06:04:50;21.90;76.50
22416;DHT22;12204;50.600;4.608;2023-05-02T06:09:58;21.90;76.00
22416;DHT22;12204;50.600;4.608;2023-05-02T06:15:06;21.80;76.00
22416;DHT22;12204;50.600;4.608;2023-05-02T06:20:11;21.80;76.50
22416;DHT22;12204;50.600;4.608;2023-05-02T06:25:16;21.90;76.30
22416;DHT22;12204;50.600;4.608;2023-05-02T06:30:19;21.90;76.20
22416;DHT22;12204;50.600;4.608;2023-05-02T06:35:23;21.90;76.50
22416;DHT22;12204;50.600;4.608;2023-05-02T06:40:27;21.90;76.40
22416;DHT22;12204;50.600;4.608;2023-05-02T06:45:31;21.90;76.50
22416;DHT22;12204;50.600;4.608;2023-05-02T06:50:34;21.90;76.30
22416;DHT22;12204;50.600;4.608;2023-05-02T06:55:39;21.90;76.50
22416;DHT22;12204;50.600;4.608;2023-05-02T07:00:43;21.90;76.10
22416;DHT22;12204;50.600;4.608;2023-05-02T07:05:47;21.90;75.70
22416;DHT22;12204;50.600;4.608;2023-05-02T07:10:51;21.90;75.80
22416;DHT22;12204;50.600;4.608;2023-05-02T07:15:55;21.90;75.20
22416;DHT22;12204;50.600;4.608;2023-05-02T07:20:59;21.90;74.00
22416;DHT22;12204;50.600;4.608;2023-05-02T07:26:04;21.80;73.40
22416;DHT22;12204;50.600;4.608;2023-05-02T07:31:07;21.70;72.80
22416;DHT22;12204;50.600;4.608;2023-05-02T07:36:11;21.70;72.50
22416;DHT22;12204;50.600;4.608;2023-05-02T07:41:16;21.70;72.90
22416;DHT22;12204;50.600;4.608;2023-05-02T07:46:19;21.80;72.20
22416;DHT22;12204;50.600;4.608;2023-05-02T07:51:23;21.70;72.10
22416;DHT22;12204;50.600;4.608;2023-05-02T07:56:29;21.70;71.80
22416;DHT22;12204;50.600;4.608;2023-05-02T08:01:32;21.70;71.90
22416;DHT22;12204;50.600;4.608;2023-05-02T08:06:35;21.60;71.50
22416;DHT22;12204;50.600;4.608;2023-05-02T08:11:40;21.70;72.10
22416;DHT22;12204;50.600;4.608;2023-05-02T08:16:44;21.70;72.70
22416;DHT22;12204;50.600;4.608;2023-05-02T08:21:47;21.70;72.80
22416;DHT22;12204;50.600;4.608;2023-05-02T08:26:52;21.80;72.80
22416;DHT22;12204;50.600;4.608;2023-05-02T08:31:56;21.80;72.80
22416;DHT22;12204;50.600;4.608;2023-05-02T08:36:59;21.80;73.60
22416;DHT22;12204;50.600;4.608;2023-05-02T08:42:06;21.80;73.10
22416;DHT22;12204;50.600;4.608;2023-05-02T08:47:10;21.80;74.10
22416;DHT22;12204;50.600;4.608;2023-05-02T08:52:17;21.80;74.80
22416;DHT22;12204;50.600;4.608;2023-05-02T08:57:24;21.80;75.40
22416;DHT22;12204;50.600;4.608;2023-05-02T09:02:41;21.90;75.90
22416;DHT22;12204;50.600;4.608;2023-05-02T09:07:54;21.90;76.70
22416;DHT22;12204;50.600;4.608;2023-05-02T09:13:29;21.90;77.70
22416;DHT22;12204;50.600;4.608;2023-05-02T09:18:36;21.90;79.20
22416;DHT22;12204;50.600;4.608;2023-05-02T09:23:43;21.90;80.50
22416;DHT22;12204;50.600;4.608;2023-05-02T09:28:52;21.90;82.00
22416;DHT22;12204;50.600;4.608;2023-05-02T09:33:56;21.90;82.30
22416;DHT22;12204;50.600;4.608;2023-05-02T09:39:11;21.90;82.20
22416;DHT22;12204;50.600;4.608;2023-05-02T09:44:19;21.90;81.70
22416;DHT22;12204;50.600;4.608;2023-05-02T09:49:40;22.00;80.80
22416;DHT22;12204;50.600;4.608;2023-05-02T09:54:46;22.00;80.00
22416;DHT22;12204;50.600;4.608;2023-05-02T09:59:57;22.00;80.10
22416;DHT22;12204;50.600;4.608;2023-05-02T10:05:01;22.00;79.60
22416;DHT22;12204;50.600;4.608;2023-05-02T10:10:07;21.90;77.90
22416;DHT22;12204;50.600;4.608;2023-05-02T10:15:15;21.90;78.40
22416;DHT22;12204;50.600;4.608;2023-05-02T10:20:22;21.90;77.70
22416;DHT22;12204;50.600;4.608;2023-05-02T10:25:32;21.80;77.40
22416;DHT22;12204;50.600;4.608;2023-05-02T10:30:38;21.80;79.00
22416;DHT22;12204;50.600;4.608;2023-05-02T10:35:43;21.80;79.70
22416;DHT22;12204;50.600;4.608;2023-05-02T10:40:53;21.90;79.40
22416;DHT22;12204;50.600;4.608;2023-05-02T10:46:01;21.80;78.10
22416;DHT22;12204;50.600;4.608;2023-05-02T10:51:05;21.80;78.40
22416;DHT22;12204;50.600;4.608;2023-05-02T10:56:16;21.80;78.70
22416;DHT22;12204;50.600;4.608;2023-05-02T11:01:36;21.80;77.30
22416;DHT22;12204;50.600;4.608;2023-05-02T11:07:18;21.80;77.30
22416;DHT22;12204;50.600;4.608;2023-05-02T11:12:43;21.80;76.30
22416;DHT22;12204;50.600;4.608;2023-05-02T11:17:59;21.80;75.20
22416;DHT22;12204;50.600;4.608;2023-05-02T11:23:21;21.80;75.90
22416;DHT22;12204;50.600;4.608;2023-05-02T11:28:41;21.80;75.40
22416;DHT22;12204;50.600;4.608;2023-05-02T11:33:56;21.80;74.60
22416;DHT22;12204;50.600;4.608;2023-05-02T11:39:00;21.90;75.60
22416;DHT22;12204;50.600;4.608;2023-05-02T11:44:06;21.80;74.60
22416;DHT22;12204;50.600;4.608;2023-05-02T11:49:11;21.80;73.20
22416;DHT22;12204;50.600;4.608;2023-05-02T11:54:18;21.80;72.90
22416;DHT22;12204;50.600;4.608;2023-05-02T11:59:22;21.70;72.10
22416;DHT22;12204;50.600;4.608;2023-05-02T12:04:27;21.70;72.50
22416;DHT22;12204;50.600;4.608;2023-05-02T12:09:30;21.80;71.80
22416;DHT22;12204;50.600;4.608;2023-05-02T12:14:34;21.80;72.20
22416;DHT22;12204;50.600;4.608;2023-05-02T12:19:40;21.80;72.20
22416;DHT22;12204;50.600;4.608;2023-05-02T12:24:44;21.80;72.00
22416;DHT22;12204;50.600;4.608;2023-05-02T12:29:47;21.80;71.10
22416;DHT22;12204;50.600;4.608;2023-05-02T12:34:52;21.80;71.10
22416;DHT22;12204;50.600;4.608;2023-05-02T12:39:56;21.80;72.80
22416;DHT22;12204;50.600;4.608;2023-05-02T12:45:15;21.90;73.20
22416;DHT22;12204;50.600;4.608;2023-05-02T12:50:34;21.90;73.60
22416;DHT22;12204;50.600;4.608;2023-05-02T12:55:40;21.90;73.90
22416;DHT22;12204;50.600;4.608;2023-05-02T13:00:45;21.90;73.80
22416;DHT22;12204;50.600;4.608;2023-05-02T13:05:54;21.90;72.00
22416;DHT22;12204;50.600;4.608;2023-05-02T13:10:59;21.90;73.50
22416;DHT22;12204;50.600;4.608;2023-05-02T13:16:06;21.90;72.60
22416;DHT22;12204;50.600;4.608;2023-05-02T13:21:13;21.90;71.90
22416;DHT22;12204;50.600;4.608;2023-05-02T13:26:18;21.90;71.50
22416;DHT22;12204;50.600;4.608;2023-05-02T13:31:23;21.90;71.20
22416;DHT22;12204;50.600;4.608;2023-05-02T13:36:29;21.90;71.00
22416;DHT22;12204;50.600;4.608;2023-05-02T13:41:34;21.90;70.90
22416;DHT22;12204;50.600;4.608;2023-05-02T13:46:38;21.90;70.70
22416;DHT22;12204;50.600;4.608;2023-05-02T13:51:43;21.90;70.70
22416;DHT22;12204;50.600;4.608;2023-05-02T13:56:46;22.00;70.90
22416;DHT22;12204;50.600;4.608;2023-05-02T14:01:49;22.00;71.20
22416;DHT22;12204;50.600;4.608;2023-05-02T14:06:54;22.00;70.70
22416;DHT22;12204;50.600;4.608;2023-05-02T14:11:57;22.00;71.00
22416;DHT22;12204;50.600;4.608;2023-05-02T14:17:02;22.00;71.20
22416;DHT22;12204;50.600;4.608;2023-05-02T14:22:07;22.00;70.90
22416;DHT22;12204;50.600;4.608;2023-05-02T14:27:10;22.10;71.20
22416;DHT22;12204;50.600;4.608;2023-05-02T14:32:18;22.10;71.00
22416;DHT22;12204;50.600;4.608;2023-05-02T14:37:23;22.10;70.60
22416;DHT22;12204;50.600;4.608;2023-05-02T14:42:27;22.10;69.60
22416;DHT22;12204;50.600;4.608;2023-05-02T14:47:30;22.20;70.30
22416;DHT22;12204;50.600;4.608;2023-05-02T14:52:35;22.20;70.00
22416;DHT22;12204;50.600;4.608;2023-05-02T14:57:39;22.20;66.70
22416;DHT22;12204;50.600;4.608;2023-05-02T15:02:42;22.10;66.30
22416;DHT22;12204;50.600;4.608;2023-05-02T15:07:47;22.20;68.60
22416;DHT22;12204;50.600;4.608;2023-05-02T15:12:51;22.20;67.20
22416;DHT22;12204;50.600;4.608;2023-05-02T15:17:54;22.30;67.80
22416;DHT22;12204;50.600;4.608;2023-05-02T15:22:59;22.20;67.10
22416;DHT22;12204;50.600;4.608;2023-05-02T15:28:04;22.30;66.80
22416;DHT22;12204;50.600;4.608;2023-05-02T15:33:08;22.40;65.80
22416;DHT22;12204;50.600;4.608;2023-05-02T15:38:13;22.40;65.10
22416;DHT22;12204;50.600;4.608;2023-05-02T15:43:17;22.50;65.80
22416;DHT22;12204;50.600;4.608;2023-05-02T15:48:21;22.50;65.70
22416;DHT22;12204;50.600;4.608;2023-05-02T15:53:27;22.50;66.60
22416;DHT22;12204;50.600;4.608;2023-05-02T15:58:31;22.50;66.80
22416;DHT22;12204;50.600;4.608;2023-05-02T16:03:34;22.60;66.90
22416;DHT22;12204;50.600;4.608;2023-05-02T16:08:39;22.70;66.20
22416;DHT22;12204;50.600;4.608;2023-05-02T16:13:42;22.80;67.10
22416;DHT22;12204;50.600;4.608;2023-05-02T16:18:46;22.90;67.70
22416;DHT22;12204;50.600;4.608;2023-05-02T16:23:51;22.80;67.70
22416;DHT22;12204;50.600;4.608;2023-05-02T16:28:55;22.80;68.50
22416;DHT22;12204;50.600;4.608;2023-05-02T16:33:59;22.90;69.00
22416;DHT22;12204;50.600;4.608;2023-05-02T16:39:05;22.90;69.30
22416;DHT22;12204;50.600;4.608;2023-05-02T16:44:08;22.90;69.20
22416;DHT22;12204;50.600;4.608;2023-05-02T16:49:12;22.80;68.70
22416;DHT22;12204;50.600;4.608;2023-05-02T16:54:16;22.80;67.70
22416;DHT22;12204;50.600;4.608;2023-05-02T16:59:20;22.80;68.40
22416;DHT22;12204;50.600;4.608;2023-05-02T17:04:23;22.80;68.60
22416;DHT22;12204;50.600;4.608;2023-05-02T17:09:28;22.80;68.20
22416;DHT22;12204;50.600;4.608;2023-05-02T17:14:32;22.80;67.80
22416;DHT22;12204;50.600;4.608;2023-05-02T17:19:35;22.90;68.00
22416;DHT22;12204;50.600;4.608;2023-05-02T17:24:41;22.90;68.10
22416;DHT22;12204;50.600;4.608;2023-05-02T17:29:48;22.90;68.50
22416;DHT22;12204;50.600;4.608;2023-05-02T17:34:52;22.90;68.20
22416;DHT22;12204;50.600;4.608;2023-05-02T17:39:59;22.90;68.30
22416;DHT22;12204;50.600;4.608;2023-05-02T17:45:04;22.90;67.90
22416;DHT22;12204;50.600;4.608;2023-05-02T17:50:09;22.90;66.50
22416;DHT22;12204;50.600;4.608;2023-05-02T17:55:16;22.90;69.00
22416;DHT22;12204;50.600;4.608;2023-05-02T18:00:20;22.90;68.20
22416;DHT22;12204;50.600;4.608;2023-05-02T18:05:24;22.90;68.30
22416;DHT22;12204;50.600;4.608;2023-05-02T18:10:35;22.90;68.10
22416;DHT22;12204;50.600;4.608;2023-05-02T18:15:39;22.90;67.60
22416;DHT22;12204;50.600;4.608;2023-05-02T18:20:42;23.00;67.50
22416;DHT22;12204;50.600;4.608;2023-05-02T18:25:47;23.00;67.50
22416;DHT22;12204;50.600;4.608;2023-05-02T18:30:50;23.00;67.70
22416;DHT22;12204;50.600;4.608;2023-05-02T18:35:54;23.00;67.80
22416;DHT22;12204;50.600;4.608;2023-05-02T18:40:58;23.00;67.80
22416;DHT22;12204;50.600;4.608;2023-05-02T18:46:02;23.00;68.10
22416;DHT22;12204;50.600;4.608;2023-05-02T18:51:05;22.90;68.20
22416;DHT22;12204;50.600;4.608;2023-05-02T18:56:13;22.90;68.40
22416;DHT22;12204;50.600;4.608;2023-05-02T19:01:17;22.90;72.20
22416;DHT22;12204;50.600;4.608;2023-05-02T19:06:22;22.90;72.40
22416;DHT22;12204;50.600;4.608;2023-05-02T19:11:28;22.90;71.50
22416;DHT22;12204;50.600;4.608;2023-05-02T19:16:31;22.80;72.30
22416;DHT22;12204;50.600;4.608;2023-05-02T19:21:35;22.80;72.60
22416;DHT22;12204;50.600;4.608;2023-05-02T19:26:41;22.80;72.80
22416;DHT22;12204;50.600;4.608;2023-05-02T19:31:44;22.80;72.40
22416;DHT22;12204;50.600;4.608;2023-05-02T19:36:48;22.80;72.20
22416;DHT22;12204;50.600;4.608;2023-05-02T19:41:53;22.80;72.10
22416;DHT22;12204;50.600;4.608;2023-05-02T19:46:56;22.80;72.00
22416;DHT22;12204;50.600;4.608;2023-05-02T19:52:00;22.80;71.80
22416;DHT22;12204;50.600;4.608;2023-05-02T19:57:05;22.80;71.90
22416;DHT22;12204;50.600;4.608;2023-05-02T20:02:09;22.80;71.80
22416;DHT22;12204;50.600;4.608;2023-05-02T20:07:13;22.70;71.70
22416;DHT22;12204;50.600;4.608;2023-05-02T20:12:17;22.80;71.90
22416;DHT22;12204;50.600;4.608;2023-05-02T20:17:21;22.70;71.80
22416;DHT22;12204;50.600;4.608;2023-05-02T20:22:24;22.70;71.90
22416;DHT22;12204;50.600;4.608;2023-05-02T20:27:29;22.70;71.80
22416;DHT22;12204;50.600;4.608;2023-05-02T20:32:32;22.70;71.80
22416;DHT22;12204;50.600;4.608;2023-05-02T20:37:36;22.70;71.70
22416;DHT22;12204;50.600;4.608;2023-05-02T20:42:41;22.70;71.70
22416;DHT22;12204;50.600;4.608;2023-05-02T20:47:44;22.70;71.70
22416;DHT22;12204;50.600;4.608;2023-05-02T20:52:49;22.70;71.40
22416;DHT22;12204;50.600;4.608;2023-05-02T20:57:53;22.70;71.60
22416;DHT22;12204;50.600;4.608;2023-05-02T21:02:57;22.60;71.70
22416;DHT22;12204;50.600;4.608;2023-05-02T21:08:00;22.70;71.70
22416;DHT22;12204;50.600;4.608;2023-05-02T21:13:05;22.60;71.70
22416;DHT22;12204;50.600;4.608;2023-05-02T21:18:08;22.60;71.70
22416;DHT22;12204;50.600;4.608;2023-05-02T21:23:12;22.60;71.80
22416;DHT22;12204;50.600;4.608;2023-05-02T21:28:17;22.60;71.70
22416;DHT22;12204;50.600;4.608;2023-05-02T21:33:20;22.60;71.90
22416;DHT22;12204;50.600;4.608;2023-05-02T21:38:25;22.60;71.80
22416;DHT22;12204;50.600;4.608;2023-05-02T21:43:33;22.60;71.60
22416;DHT22;12204;50.600;4.608;2023-05-02T21:48:39;22.60;71.60
22416;DHT22;12204;50.600;4.608;2023-05-02T21:53:42;22.60;71.80
22416;DHT22;12204;50.600;4.608;2023-05-02T21:58:47;22.60;71.80
22416;DHT22;12204;50.600;4.608;2023-05-02T22:03:52;22.60;71.70
22416;DHT22;12204;50.600;4.608;2023-05-02T22:08:56;22.60;71.80
22416;DHT22;12204;50.600;4.608;2023-05-02T22:14:00;22.50;71.70
22416;DHT22;12204;50.600;4.608;2023-05-02T22:19:04;22.50;71.40
22416;DHT22;12204;50.600;4.608;2023-05-02T22:24:08;22.50;71.70
22416;DHT22;12204;50.600;4.608;2023-05-02T22:29:13;22.50;71.60
22416;DHT22;12204;50.600;4.608;2023-05-02T22:34:16;22.50;71.70
22416;DHT22;12204;50.600;4.608;2023-05-02T22:39:20;22.50;71.40
22416;DHT22;12204;50.600;4.608;2023-05-02T22:44:25;22.50;71.50
22416;DHT22;12204;50.600;4.608;2023-05-02T22:49:28;22.50;71.40
22416;DHT22;12204;50.600;4.608;2023-05-02T22:54:33;22.50;71.40
22416;DHT22;12204;50.600;4.608;2023-05-02T22:59:38;22.50;71.70
22416;DHT22;12204;50.600;4.608;2023-05-02T23:04:42;22.50;71.50
22416;DHT22;12204;50.600;4.608;2023-05-02T23:09:45;22.50;71.90
22416;DHT22;12204;50.600;4.608;2023-05-02T23:14:50;22.50;71.90
22416;DHT22;12204;50.600;4.608;2023-05-02T23:19:53;22.50;72.40
22416;DHT22;12204;50.600;4.608;2023-05-02T23:24:57;22.50;72.80
22416;DHT22;12204;50.600;4.608;2023-05-02T23:30:02;22.50;73.00
22416;DHT22;12204;50.600;4.608;2023-05-02T23:35:08;22.50;73.10
22416;DHT22;12204;50.600;4.608;2023-05-02T23:40:13;22.40;73.20
22416;DHT22;12204;50.600;4.608;2023-05-02T23:45:17;22.50;73.40
22416;DHT22;12204;50.600;4.608;2023-05-02T23:50:21;22.40;73.50
22416;DHT22;12204;50.600;4.608;2023-05-02T23:55:25;22.50;73.70
